EWG6900 EDDK-EDDH
Flight info
| Callsign | EWG6900 |
|---|---|
| Flight time | 0h 45m |
| Altitude | 35000 |
| Route | PODIP1R PODIP Y867 PELUN DCT ANZIV DCT WRB Y867 TOLGI DCT SAS/N0446F340 P605 NOLGO NOLGO3S |
| Aircraft | A320/M-SDE3FGHIRWY/LB1 |
Departure
| Time | 2026-04-25 13:23 |
|---|---|
| Airport | Cologne Bonn Airport (EDDK) |
Arrival
| Time | 2026-04-25 14:08 |
|---|---|
| Airport | Hamburg Helmut Schmidt Airport (EDDH) |
| Time | Latitude | Longitude | Altitude | Speed | Heading |
|---|---|---|---|---|---|
| 2026-04-25 12:50 | 50.87694 | 7.12387 | 239 ft | 0 kts | 288° |
| 2026-04-25 13:11 | 50.87694 | 7.12386 | 240 ft | 0 kts | 288° |
| 2026-04-25 13:11 | 50.87693 | 7.12387 | 240 ft | 1 kts | 288° |
| 2026-04-25 13:12 | 50.87689 | 7.12409 | 240 ft | 2 kts | 288° |
| 2026-04-25 13:12 | 50.87684 | 7.12432 | 241 ft | 2 kts | 288° |
| 2026-04-25 13:12 | 50.87680 | 7.12455 | 241 ft | 2 kts | 288° |
| 2026-04-25 13:12 | 50.87676 | 7.12469 | 241 ft | 2 kts | 288° |
| 2026-04-25 13:13 | 50.87664 | 7.12492 | 242 ft | 2 kts | 346° |
| 2026-04-25 13:13 | 50.87654 | 7.12493 | 242 ft | 0 kts | 14° |
| 2026-04-25 13:13 | 50.87647 | 7.12489 | 241 ft | 0 kts | 18° |
| 2026-04-25 13:13 | 50.87646 | 7.12488 | 241 ft | 0 kts | 18° |
| 2026-04-25 13:14 | 50.87647 | 7.12488 | 241 ft | 0 kts | 18° |
| 2026-04-25 13:16 | 50.87648 | 7.12489 | 241 ft | 0 kts | 18° |
| 2026-04-25 13:17 | 50.87659 | 7.12495 | 242 ft | 2 kts | 18° |
| 2026-04-25 13:17 | 50.87683 | 7.12508 | 243 ft | 4 kts | 18° |
| 2026-04-25 13:17 | 50.87717 | 7.12526 | 244 ft | 5 kts | 20° |
| 2026-04-25 13:17 | 50.87751 | 7.12562 | 246 ft | 5 kts | 52° |
| 2026-04-25 13:18 | 50.87755 | 7.12583 | 247 ft | 1 kts | 73° |
| 2026-04-25 13:18 | 50.87761 | 7.12611 | 247 ft | 3 kts | 70° |
| 2026-04-25 13:18 | 50.87768 | 7.12665 | 248 ft | 6 kts | 91° |
| 2026-04-25 13:18 | 50.87740 | 7.12739 | 248 ft | 10 kts | 137° |
| 2026-04-25 13:19 | 50.87679 | 7.12825 | 249 ft | 12 kts | 137° |
| 2026-04-25 13:19 | 50.87606 | 7.12932 | 247 ft | 15 kts | 137° |
| 2026-04-25 13:19 | 50.87519 | 7.13057 | 246 ft | 18 kts | 137° |
| 2026-04-25 13:19 | 50.87456 | 7.13149 | 245 ft | 19 kts | 137° |
| 2026-04-25 13:20 | 50.87322 | 7.13346 | 245 ft | 20 kts | 137° |
| 2026-04-25 13:20 | 50.87213 | 7.13501 | 245 ft | 21 kts | 137° |
| 2026-04-25 13:20 | 50.87108 | 7.13656 | 248 ft | 20 kts | 137° |
| 2026-04-25 13:20 | 50.87004 | 7.13804 | 251 ft | 19 kts | 137° |
| 2026-04-25 13:21 | 50.86940 | 7.13907 | 253 ft | 11 kts | 122° |
| 2026-04-25 13:21 | 50.86919 | 7.14035 | 254 ft | 12 kts | 99° |
| 2026-04-25 13:21 | 50.86904 | 7.14164 | 257 ft | 11 kts | 99° |
| 2026-04-25 13:21 | 50.86890 | 7.14300 | 258 ft | 13 kts | 99° |
| 2026-04-25 13:22 | 50.86876 | 7.14440 | 260 ft | 12 kts | 100° |
| 2026-04-25 13:22 | 50.86875 | 7.14560 | 263 ft | 9 kts | 60° |
| 2026-04-25 13:22 | 50.86897 | 7.14573 | 263 ft | 1 kts | 322° |
| 2026-04-25 13:23 | 50.87658 | 7.13478 | 323 ft | 154 kts | 316° |
| 2026-04-25 13:23 | 50.88428 | 7.12381 | 1298 ft | 155 kts | 319° |
| 2026-04-25 13:23 | 50.89309 | 7.11604 | 2305 ft | 150 kts | 353° |
| 2026-04-25 13:23 | 50.90280 | 7.11921 | 3249 ft | 147 kts | 19° |
| 2026-04-25 13:24 | 50.91223 | 7.12508 | 4037 ft | 155 kts | 18° |
| 2026-04-25 13:24 | 50.92349 | 7.13134 | 4398 ft | 191 kts | 16° |
| 2026-04-25 13:24 | 50.93592 | 7.14176 | 4553 ft | 217 kts | 44° |
| 2026-04-25 13:24 | 50.94397 | 7.16364 | 4765 ft | 248 kts | 63° |
| 2026-04-25 13:25 | 50.95010 | 7.19083 | 5450 ft | 276 kts | 78° |
| 2026-04-25 13:25 | 50.95058 | 7.22128 | 6627 ft | 283 kts | 90° |
| 2026-04-25 13:25 | 50.94944 | 7.25193 | 7775 ft | 289 kts | 91° |
| 2026-04-25 13:25 | 50.94928 | 7.28369 | 8876 ft | 292 kts | 77° |
| 2026-04-25 13:26 | 50.95596 | 7.31323 | 10009 ft | 291 kts | 59° |
| 2026-04-25 13:26 | 50.96572 | 7.34149 | 11046 ft | 300 kts | 56° |
| 2026-04-25 13:26 | 50.97626 | 7.37093 | 11682 ft | 318 kts | 57° |
| 2026-04-25 13:26 | 50.98692 | 7.40183 | 12185 ft | 324 kts | 58° |
| 2026-04-25 13:27 | 50.99745 | 7.43360 | 12683 ft | 328 kts | 59° |
| 2026-04-25 13:27 | 51.00782 | 7.46569 | 12998 ft | 330 kts | 59° |
| 2026-04-25 13:27 | 51.01817 | 7.49828 | 13258 ft | 332 kts | 59° |
| 2026-04-25 13:27 | 51.02847 | 7.53098 | 13499 ft | 333 kts | 59° |
| 2026-04-25 13:28 | 51.03882 | 7.56404 | 13765 ft | 335 kts | 59° |
| 2026-04-25 13:28 | 51.04565 | 7.58596 | 13926 ft | 336 kts | 59° |
| 2026-04-25 13:28 | 51.05955 | 7.63060 | 14117 ft | 337 kts | 60° |
| 2026-04-25 13:28 | 51.06990 | 7.66397 | 14132 ft | 337 kts | 60° |
| 2026-04-25 13:29 | 51.08028 | 7.69746 | 14124 ft | 337 kts | 60° |
| 2026-04-25 13:29 | 51.09054 | 7.73061 | 14127 ft | 337 kts | 60° |
| 2026-04-25 13:29 | 51.10102 | 7.76457 | 14147 ft | 341 kts | 60° |
| 2026-04-25 13:30 | 51.12209 | 7.83286 | 15876 ft | 350 kts | 60° |
| 2026-04-25 13:30 | 51.13285 | 7.86790 | 16922 ft | 352 kts | 60° |
| 2026-04-25 13:30 | 51.14347 | 7.90246 | 17826 ft | 357 kts | 60° |
| 2026-04-25 13:31 | 51.16542 | 7.97404 | 19570 ft | 366 kts | 60° |
| 2026-04-25 13:31 | 51.17665 | 8.01075 | 20432 ft | 370 kts | 60° |
| 2026-04-25 13:31 | 51.18785 | 8.04741 | 21259 ft | 374 kts | 60° |
| 2026-04-25 13:31 | 51.19929 | 8.08495 | 22065 ft | 378 kts | 60° |
| 2026-04-25 13:32 | 51.21080 | 8.12274 | 22830 ft | 382 kts | 60° |
| 2026-04-25 13:32 | 51.22232 | 8.16066 | 23582 ft | 387 kts | 60° |
| 2026-04-25 13:32 | 51.23410 | 8.19952 | 24318 ft | 391 kts | 60° |
| 2026-04-25 13:32 | 51.24589 | 8.23845 | 24866 ft | 394 kts | 60° |
| 2026-04-25 13:33 | 51.25779 | 8.27781 | 25094 ft | 396 kts | 60° |
| 2026-04-25 13:33 | 51.26976 | 8.31749 | 25096 ft | 396 kts | 60° |
| 2026-04-25 13:33 | 51.28162 | 8.35683 | 25097 ft | 396 kts | 60° |
| 2026-04-25 13:33 | 51.28947 | 8.38292 | 25098 ft | 396 kts | 60° |
| 2026-04-25 13:34 | 51.30530 | 8.43557 | 25098 ft | 396 kts | 59° |
| 2026-04-25 13:34 | 51.31722 | 8.47529 | 25099 ft | 396 kts | 59° |
| 2026-04-25 13:34 | 51.32908 | 8.51489 | 25099 ft | 396 kts | 59° |
| 2026-04-25 13:34 | 51.34094 | 8.55455 | 25099 ft | 396 kts | 59° |
| 2026-04-25 13:35 | 51.34879 | 8.58084 | 25099 ft | 396 kts | 59° |
| 2026-04-25 13:35 | 51.36463 | 8.63394 | 25099 ft | 396 kts | 59° |
| 2026-04-25 13:35 | 51.37642 | 8.67355 | 25099 ft | 397 kts | 60° |
| 2026-04-25 13:35 | 51.38817 | 8.71304 | 25100 ft | 397 kts | 60° |
| 2026-04-25 13:36 | 51.40017 | 8.75331 | 25102 ft | 397 kts | 60° |
| 2026-04-25 13:36 | 51.41197 | 8.79306 | 25102 ft | 397 kts | 60° |
| 2026-04-25 13:36 | 51.42371 | 8.83268 | 25099 ft | 397 kts | 60° |
| 2026-04-25 13:36 | 51.43547 | 8.87244 | 25098 ft | 397 kts | 60° |
| 2026-04-25 13:37 | 51.44732 | 8.91264 | 25095 ft | 397 kts | 60° |
| 2026-04-25 13:37 | 51.45904 | 8.95246 | 25093 ft | 397 kts | 60° |
| 2026-04-25 13:37 | 51.47078 | 8.99245 | 25093 ft | 398 kts | 60° |
| 2026-04-25 13:37 | 51.48254 | 9.03258 | 25094 ft | 398 kts | 60° |
| 2026-04-25 13:38 | 51.49456 | 9.07207 | 25091 ft | 396 kts | 56° |
| 2026-04-25 13:38 | 51.50962 | 9.10834 | 25089 ft | 391 kts | 46° |
| 2026-04-25 13:38 | 51.52779 | 9.13997 | 25091 ft | 386 kts | 37° |
| 2026-04-25 13:38 | 51.54818 | 9.16766 | 25093 ft | 383 kts | 33° |
| 2026-04-25 13:39 | 51.56908 | 9.19447 | 25091 ft | 383 kts | 33° |
| 2026-04-25 13:39 | 51.58991 | 9.22105 | 25089 ft | 383 kts | 33° |
| 2026-04-25 13:39 | 51.61054 | 9.24752 | 25088 ft | 383 kts | 33° |
| 2026-04-25 13:39 | 51.63144 | 9.27450 | 25088 ft | 384 kts | 33° |
| 2026-04-25 13:40 | 51.65216 | 9.30134 | 25086 ft | 384 kts | 33° |
| 2026-04-25 13:40 | 51.67284 | 9.32824 | 25082 ft | 384 kts | 33° |
| 2026-04-25 13:40 | 51.69350 | 9.35519 | 25080 ft | 384 kts | 33° |
| 2026-04-25 13:40 | 51.71433 | 9.38237 | 25079 ft | 384 kts | 33° |
| 2026-04-25 13:41 | 51.73504 | 9.40945 | 25079 ft | 385 kts | 33° |
| 2026-04-25 13:41 | 51.75573 | 9.43656 | 25080 ft | 385 kts | 33° |
| 2026-04-25 13:41 | 51.77657 | 9.46392 | 25078 ft | 385 kts | 33° |
| 2026-04-25 13:41 | 51.79730 | 9.49113 | 25077 ft | 385 kts | 33° |
| 2026-04-25 13:42 | 51.81856 | 9.51727 | 25076 ft | 383 kts | 29° |
| 2026-04-25 13:42 | 51.84040 | 9.54056 | 25076 ft | 380 kts | 25° |
| 2026-04-25 13:42 | 51.86348 | 9.56171 | 25076 ft | 378 kts | 22° |
| 2026-04-25 13:42 | 51.88675 | 9.58118 | 25075 ft | 377 kts | 21° |
| 2026-04-25 13:43 | 51.91003 | 9.60033 | 25077 ft | 377 kts | 21° |
| 2026-04-25 13:43 | 51.93337 | 9.61954 | 25076 ft | 377 kts | 21° |
| 2026-04-25 13:43 | 51.95664 | 9.63878 | 25075 ft | 378 kts | 21° |
| 2026-04-25 13:43 | 51.97998 | 9.65812 | 25076 ft | 378 kts | 22° |
| 2026-04-25 13:44 | 52.00343 | 9.67757 | 25075 ft | 378 kts | 21° |
| 2026-04-25 13:44 | 52.02685 | 9.69706 | 25076 ft | 379 kts | 21° |
| 2026-04-25 13:44 | 52.05036 | 9.71662 | 25076 ft | 379 kts | 21° |
| 2026-04-25 13:44 | 52.07348 | 9.73593 | 25074 ft | 379 kts | 21° |
| 2026-04-25 13:45 | 52.09690 | 9.75549 | 25072 ft | 379 kts | 21° |
| 2026-04-25 13:45 | 52.12040 | 9.77512 | 25074 ft | 379 kts | 21° |
| 2026-04-25 13:45 | 52.14395 | 9.79483 | 25074 ft | 379 kts | 21° |
| 2026-04-25 13:45 | 52.16719 | 9.81433 | 25073 ft | 378 kts | 21° |
| 2026-04-25 13:46 | 52.19044 | 9.83385 | 25071 ft | 378 kts | 21° |
| 2026-04-25 13:46 | 52.21367 | 9.85335 | 25072 ft | 378 kts | 21° |
| 2026-04-25 13:46 | 52.23728 | 9.87167 | 25068 ft | 375 kts | 17° |
| 2026-04-25 13:46 | 52.26159 | 9.88736 | 25067 ft | 373 kts | 13° |
| 2026-04-25 13:47 | 52.28593 | 9.90008 | 25066 ft | 370 kts | 10° |
| 2026-04-25 13:47 | 52.31086 | 9.91130 | 25065 ft | 370 kts | 9° |
| 2026-04-25 13:47 | 52.33551 | 9.92206 | 25065 ft | 370 kts | 9° |
| 2026-04-25 13:47 | 52.36053 | 9.93295 | 25067 ft | 370 kts | 9° |
| 2026-04-25 13:48 | 52.38514 | 9.94371 | 25019 ft | 370 kts | 9° |
| 2026-04-25 13:48 | 52.40983 | 9.95457 | 24759 ft | 368 kts | 9° |
| 2026-04-25 13:48 | 52.43440 | 9.96539 | 24490 ft | 367 kts | 9° |
| 2026-04-25 13:48 | 52.45915 | 9.97633 | 24179 ft | 365 kts | 9° |
| 2026-04-25 13:49 | 52.48340 | 9.98705 | 23827 ft | 363 kts | 9° |
| 2026-04-25 13:49 | 52.50771 | 9.99783 | 23382 ft | 361 kts | 9° |
| 2026-04-25 13:49 | 52.53179 | 10.00852 | 22888 ft | 358 kts | 9° |
| 2026-04-25 13:49 | 52.55549 | 10.01904 | 22372 ft | 355 kts | 9° |
| 2026-04-25 13:50 | 52.57925 | 10.02962 | 21854 ft | 352 kts | 9° |
| 2026-04-25 13:50 | 52.60254 | 10.04003 | 21338 ft | 349 kts | 8° |
| 2026-04-25 13:50 | 52.62573 | 10.05040 | 20817 ft | 346 kts | 8° |
| 2026-04-25 13:50 | 52.64890 | 10.06076 | 20291 ft | 343 kts | 8° |
| 2026-04-25 13:51 | 52.67162 | 10.07093 | 19778 ft | 341 kts | 8° |
| 2026-04-25 13:51 | 52.69456 | 10.08121 | 19243 ft | 339 kts | 8° |
| 2026-04-25 13:51 | 52.71716 | 10.09133 | 18710 ft | 337 kts | 8° |
| 2026-04-25 13:51 | 52.73957 | 10.10138 | 18172 ft | 335 kts | 8° |
| 2026-04-25 13:52 | 52.76199 | 10.11106 | 17633 ft | 333 kts | 6° |
| 2026-04-25 13:52 | 52.78440 | 10.11838 | 17127 ft | 327 kts | 2° |
| 2026-04-25 13:52 | 52.80663 | 10.12310 | 16645 ft | 323 kts | 359° |
| 2026-04-25 13:52 | 52.82879 | 10.12682 | 16134 ft | 321 kts | 359° |
| 2026-04-25 13:53 | 52.85087 | 10.13036 | 15626 ft | 319 kts | 358° |
| 2026-04-25 13:53 | 52.87281 | 10.13386 | 15110 ft | 318 kts | 358° |
| 2026-04-25 13:53 | 52.89478 | 10.13736 | 14593 ft | 317 kts | 359° |
| 2026-04-25 13:53 | 52.91663 | 10.14088 | 14089 ft | 314 kts | 359° |
| 2026-04-25 13:54 | 52.93840 | 10.14440 | 13585 ft | 312 kts | 359° |
| 2026-04-25 13:54 | 52.95957 | 10.14786 | 13100 ft | 309 kts | 359° |
| 2026-04-25 13:54 | 52.98089 | 10.15134 | 12601 ft | 307 kts | 358° |
| 2026-04-25 13:54 | 53.00189 | 10.15476 | 12120 ft | 303 kts | 358° |
| 2026-04-25 13:55 | 53.02275 | 10.15815 | 11629 ft | 300 kts | 358° |
| 2026-04-25 13:55 | 53.04344 | 10.16152 | 11141 ft | 297 kts | 358° |
| 2026-04-25 13:55 | 53.06369 | 10.16482 | 10670 ft | 294 kts | 358° |
| 2026-04-25 13:55 | 53.08369 | 10.16810 | 10295 ft | 286 kts | 358° |
| 2026-04-25 13:56 | 53.10306 | 10.17134 | 10119 ft | 272 kts | 358° |
| 2026-04-25 13:56 | 53.12150 | 10.17442 | 9853 ft | 264 kts | 358° |
| 2026-04-25 13:56 | 53.13956 | 10.17732 | 9429 ft | 261 kts | 358° |
| 2026-04-25 13:56 | 53.15763 | 10.18023 | 9021 ft | 259 kts | 358° |
| 2026-04-25 13:57 | 53.17533 | 10.18311 | 8634 ft | 257 kts | 358° |
| 2026-04-25 13:57 | 53.18709 | 10.18504 | 8379 ft | 255 kts | 358° |
| 2026-04-25 13:57 | 53.21066 | 10.18889 | 7852 ft | 253 kts | 358° |
| 2026-04-25 13:57 | 53.22799 | 10.19174 | 7470 ft | 251 kts | 358° |
| 2026-04-25 13:58 | 53.24520 | 10.19455 | 7073 ft | 250 kts | 358° |
| 2026-04-25 13:58 | 53.26241 | 10.19737 | 6681 ft | 248 kts | 358° |
| 2026-04-25 13:58 | 53.27943 | 10.20017 | 6307 ft | 246 kts | 358° |
| 2026-04-25 13:58 | 53.29652 | 10.20298 | 5932 ft | 244 kts | 358° |
| 2026-04-25 13:59 | 53.31320 | 10.20573 | 5550 ft | 243 kts | 358° |
| 2026-04-25 13:59 | 53.32999 | 10.20850 | 5172 ft | 242 kts | 358° |
| 2026-04-25 13:59 | 53.34651 | 10.21127 | 4971 ft | 233 kts | 358° |
| 2026-04-25 13:59 | 53.36207 | 10.21393 | 4863 ft | 215 kts | 357° |
| 2026-04-25 14:00 | 53.37637 | 10.21263 | 4740 ft | 198 kts | 340° |
| 2026-04-25 14:00 | 53.38897 | 10.20414 | 4436 ft | 194 kts | 329° |
| 2026-04-25 14:00 | 53.40086 | 10.19393 | 4111 ft | 196 kts | 328° |
| 2026-04-25 14:00 | 53.41300 | 10.18340 | 3799 ft | 196 kts | 328° |
| 2026-04-25 14:01 | 53.42497 | 10.17307 | 3542 ft | 191 kts | 328° |
| 2026-04-25 14:01 | 53.43639 | 10.16330 | 3374 ft | 179 kts | 328° |
| 2026-04-25 14:01 | 53.44727 | 10.15400 | 3266 ft | 170 kts | 328° |
| 2026-04-25 14:01 | 53.45753 | 10.14522 | 3183 ft | 160 kts | 328° |
| 2026-04-25 14:02 | 53.46714 | 10.13700 | 3150 ft | 152 kts | 328° |
| 2026-04-25 14:02 | 53.47648 | 10.12900 | 3125 ft | 151 kts | 328° |
| 2026-04-25 14:02 | 53.48581 | 10.12098 | 3076 ft | 150 kts | 328° |
| 2026-04-25 14:02 | 53.49177 | 10.11586 | 3060 ft | 141 kts | 328° |
| 2026-04-25 14:03 | 53.50318 | 10.10611 | 2786 ft | 136 kts | 327° |
| 2026-04-25 14:03 | 53.51145 | 10.09900 | 2578 ft | 132 kts | 327° |
| 2026-04-25 14:03 | 53.51946 | 10.09207 | 2394 ft | 127 kts | 327° |
| 2026-04-25 14:03 | 53.52714 | 10.08537 | 2228 ft | 121 kts | 327° |
| 2026-04-25 14:04 | 53.53442 | 10.07902 | 2068 ft | 116 kts | 326° |
| 2026-04-25 14:04 | 53.54140 | 10.07293 | 1893 ft | 109 kts | 326° |
| 2026-04-25 14:04 | 53.54802 | 10.06767 | 1768 ft | 101 kts | 329° |
| 2026-04-25 14:04 | 53.55442 | 10.06297 | 1653 ft | 103 kts | 327° |
| 2026-04-25 14:05 | 53.56107 | 10.05762 | 1530 ft | 104 kts | 326° |
| 2026-04-25 14:05 | 53.56755 | 10.05211 | 1392 ft | 103 kts | 326° |
| 2026-04-25 14:05 | 53.57393 | 10.04677 | 1247 ft | 101 kts | 327° |
| 2026-04-25 14:05 | 53.58032 | 10.04152 | 1079 ft | 104 kts | 325° |
| 2026-04-25 14:06 | 53.58659 | 10.03546 | 982 ft | 106 kts | 324° |
| 2026-04-25 14:06 | 53.59304 | 10.02921 | 854 ft | 106 kts | 325° |
| 2026-04-25 14:06 | 53.59964 | 10.02346 | 695 ft | 107 kts | 325° |
| 2026-04-25 14:06 | 53.60603 | 10.01754 | 559 ft | 105 kts | 327° |
| 2026-04-25 14:07 | 53.61246 | 10.01190 | 431 ft | 104 kts | 324° |
| 2026-04-25 14:07 | 53.61910 | 10.00604 | 286 ft | 112 kts | 321° |
| 2026-04-25 14:07 | 53.62619 | 9.99961 | 129 ft | 117 kts | 325° |
| 2026-04-25 14:07 | 53.63334 | 9.99359 | 32 ft | 107 kts | 324° |
| 2026-04-25 14:08 | 53.63891 | 9.98848 | 38 ft | 75 kts | 331° |
| 2026-04-25 14:08 | 53.64332 | 9.98473 | 45 ft | 61 kts | 334° |
| 2026-04-25 14:08 | 53.64596 | 9.98373 | 48 ft | 27 kts | 4° |
| 2026-04-25 14:08 | 53.64691 | 9.98398 | 49 ft | 7 kts | 39° |
| 2026-04-25 14:09 | 53.64698 | 9.98480 | 49 ft | 9 kts | 122° |
| 2026-04-25 14:09 | 53.64639 | 9.98559 | 48 ft | 12 kts | 148° |
| 2026-04-25 14:09 | 53.64556 | 9.98627 | 48 ft | 14 kts | 157° |
| 2026-04-25 14:09 | 53.64493 | 9.98671 | 48 ft | 14 kts | 156° |
| 2026-04-25 14:10 | 53.64363 | 9.98793 | 45 ft | 17 kts | 152° |
| 2026-04-25 14:10 | 53.64247 | 9.98885 | 43 ft | 19 kts | 156° |
| 2026-04-25 14:10 | 53.64128 | 9.98988 | 41 ft | 19 kts | 152° |
| 2026-04-25 14:10 | 53.64007 | 9.99098 | 40 ft | 20 kts | 153° |
| 2026-04-25 14:11 | 53.63879 | 9.99209 | 39 ft | 20 kts | 153° |
| 2026-04-25 14:11 | 53.63760 | 9.99359 | 38 ft | 21 kts | 131° |
| 2026-04-25 14:11 | 53.63668 | 9.99566 | 38 ft | 22 kts | 125° |
| 2026-04-25 14:11 | 53.63575 | 9.99787 | 36 ft | 24 kts | 126° |
| 2026-04-25 14:12 | 53.63477 | 10.00016 | 38 ft | 23 kts | 126° |
| 2026-04-25 14:12 | 53.63398 | 10.00155 | 39 ft | 13 kts | 165° |
| 2026-04-25 14:12 | 53.63306 | 10.00168 | 38 ft | 11 kts | 175° |
| 2026-04-25 14:12 | 53.63252 | 10.00180 | 37 ft | 4 kts | 144° |
| 2026-04-25 14:13 | 53.63241 | 10.00217 | 38 ft | 2 kts | 92° |
| 2026-04-25 14:13 | 53.63241 | 10.00235 | 39 ft | 1 kts | 87° |
| 2026-04-25 14:13 | 53.63242 | 10.00246 | 39 ft | 0 kts | 86° |
| 2026-04-25 14:13 | 53.63245 | 10.00295 | 41 ft | 6 kts | 84° |
| 2026-04-25 14:14 | 53.63247 | 10.00360 | 43 ft | 3 kts | 87° |
| 2026-04-25 14:14 | 53.63247 | 10.00364 | 43 ft | 0 kts | 87° |